Airport View

Enter AWOS ICAO identifier for current METAR.

ex. KFNL

KGGE 101555Z AUTO 23004KT 10SM CLR 31/21 A3011 RMK AO2

10 Aug 2020 15:57

Frequency: 118.275

Phone: 843-527-3851

Other Area AWOS: KMYR - KHYW - KLRO - KCKI

TAF KMYR 101120Z 1012/1112 VRB02KT P6SM SCT017 SCT022 FM101500 19006KT P6SM VCSH SCT030 FM102000 17012KT P6SM VCTS SCT035CB FM110600 00000KT 6SM BR FEW250